createdAt,value
2019-03-01T00:00:56.452Z,8.70
2019-03-01T00:03:24.377Z,9.20
2019-03-01T00:06:20.401Z,10.60
2019-03-01T00:09:05.970Z,8.50
2019-03-01T00:11:39.389Z,6.43
2019-03-01T00:14:18.198Z,8.47
2019-03-01T00:17:05.128Z,5.50
2019-03-01T00:19:45.795Z,7.43
2019-03-01T00:22:19.926Z,8.07
2019-03-01T00:25:09.953Z,7.10
2019-03-01T00:28:02.542Z,9.13
2019-03-01T00:30:37.627Z,6.70
2019-03-01T00:33:08.466Z,10.97
2019-03-01T00:35:54.210Z,6.13
2019-03-01T00:38:50.943Z,10.33
2019-03-01T00:41:38.096Z,6.73
2019-03-01T00:44:24.214Z,12.47
2019-03-01T00:46:52.160Z,6.17
2019-03-01T00:49:19.841Z,8.53
2019-03-01T00:51:47.805Z,6.30
2019-03-01T00:54:15.502Z,9.00
2019-03-01T00:56:43.161Z,10.27
2019-03-01T00:59:10.829Z,10.73
2019-03-01T01:01:39.097Z,5.90
2019-03-01T01:04:07.066Z,8.00
2019-03-01T01:06:34.717Z,10.43
2019-03-01T01:09:02.841Z,6.63
2019-03-01T01:11:30.493Z,10.50
2019-03-01T01:13:58.157Z,9.70
2019-03-01T01:16:26.654Z,6.43
2019-03-01T01:18:54.613Z,9.80
2019-03-01T01:21:22.812Z,11.60
2019-03-01T01:23:50.537Z,6.60
2019-03-01T01:26:19.097Z,8.87
2019-03-01T01:28:47.105Z,9.93
2019-03-01T01:31:15.412Z,12.20
2019-03-01T01:33:43.078Z,10.80
2019-03-01T01:36:11.089Z,10.00
2019-03-01T01:38:39.045Z,12.25
2019-03-01T01:41:07.102Z,5.57
2019-03-01T01:43:35.125Z,8.87
2019-03-01T01:46:02.794Z,8.63
2019-03-01T01:48:30.778Z,8.73
2019-03-01T01:50:58.469Z,9.57
2019-03-01T01:53:26.125Z,14.40
2019-03-01T01:55:54.635Z,12.13
2019-03-01T01:58:23.413Z,9.73
2019-03-01T02:00:51.397Z,7.73
2019-03-01T02:03:19.624Z,8.87
2019-03-01T02:05:47.566Z,9.83
2019-03-01T02:08:15.817Z,9.90
2019-03-01T02:10:44.396Z,9.70
2019-03-01T02:13:12.737Z,9.43
2019-03-01T02:15:41.158Z,8.63
2019-03-01T02:18:09.522Z,4.83
2019-03-01T02:20:37.310Z,8.00
2019-03-01T02:23:05.632Z,10.63
2019-03-01T02:25:33.553Z,10.07
2019-03-01T02:28:01.225Z,10.40
2019-03-01T02:30:29.431Z,7.23
2019-03-01T02:32:57.480Z,10.93
2019-03-01T02:35:26.088Z,10.93
2019-03-01T02:37:54.086Z,12.03
2019-03-01T02:40:22.122Z,7.37
2019-03-01T02:42:50.147Z,7.47
2019-03-01T02:45:18.540Z,9.07
2019-03-01T02:47:46.453Z,6.90
2019-03-01T02:50:14.862Z,9.00
2019-03-01T02:52:42.539Z,10.57
2019-03-01T02:55:10.809Z,9.93
2019-03-01T02:57:39.396Z,9.83
2019-03-01T03:00:09.501Z,11.13
2019-03-01T03:02:37.783Z,8.60
2019-03-01T03:05:06.270Z,6.40
2019-03-01T03:07:53.915Z,7.80
2019-03-01T03:10:21.854Z,5.90
2019-03-01T03:12:50.252Z,4.60
2019-03-01T03:15:22.415Z,13.10
2019-03-01T03:17:50.062Z,9.20
2019-03-01T03:20:18.138Z,5.53
2019-03-01T03:22:46.070Z,6.03
2019-03-01T03:25:14.039Z,12.47
2019-03-01T03:27:42.313Z,9.47
2019-03-01T03:30:10.630Z,7.90
2019-03-01T03:32:38.937Z,7.03
2019-03-01T03:35:07.390Z,7.30
2019-03-01T03:37:35.293Z,6.73
2019-03-01T03:40:03.222Z,10.50
2019-03-01T03:42:30.886Z,9.43
2019-03-01T03:44:59.432Z,8.13
2019-03-01T03:47:27.718Z,11.43
2019-03-01T03:49:55.394Z,10.03
2019-03-01T03:52:23.309Z,7.73
2019-03-01T03:54:51.295Z,8.47
2019-03-01T03:57:19.281Z,9.40
2019-03-01T03:59:46.981Z,8.47
2019-03-01T04:02:15.367Z,7.70
2019-03-01T04:04:43.650Z,9.63
2019-03-01T04:07:12.221Z,10.63
2019-03-01T04:09:40.198Z,11.40
2019-03-01T04:12:07.890Z,10.93
2019-03-01T04:14:35.860Z,11.90
2019-03-01T04:17:03.879Z,10.70
2019-03-01T04:19:32.386Z,12.50
2019-03-01T04:22:00.056Z,12.30
2019-03-01T04:24:28.226Z,13.30
2019-03-01T04:26:55.897Z,10.27
2019-03-01T04:29:23.541Z,9.23
2019-03-01T04:31:51.595Z,15.80
2019-03-01T04:34:19.321Z,16.67
2019-03-01T04:36:47.292Z,16.47
2019-03-01T04:39:15.353Z,16.37
2019-03-01T04:41:43.582Z,34.53
2019-03-01T04:44:11.358Z,44.77
2019-03-01T04:46:39.285Z,43.97
2019-03-01T04:49:07.252Z,40.90
2019-03-01T04:51:40.096Z,37.13
2019-03-01T04:54:05.486Z,35.83
2019-03-01T04:56:33.863Z,31.57
2019-03-01T04:59:02.183Z,30.67
2019-03-01T05:01:30.125Z,25.37
2019-03-01T05:03:57.864Z,18.97
2019-03-01T05:06:26.146Z,15.30
2019-03-01T05:08:54.517Z,17.17
2019-03-01T05:11:22.648Z,19.83
2019-03-01T05:13:50.321Z,20.20
2019-03-01T05:16:18.290Z,21.10
2019-03-01T05:18:46.228Z,18.53
2019-03-01T05:21:14.529Z,13.20
2019-03-01T05:23:43.186Z,13.70
2019-03-01T05:26:11.204Z,17.57
2019-03-01T05:28:39.140Z,15.33
2019-03-01T05:31:07.349Z,14.77
2019-03-01T05:33:35.693Z,14.30
2019-03-01T05:36:05.258Z,15.30
2019-03-01T05:38:33.210Z,18.40
2019-03-01T05:41:01.577Z,14.63
2019-03-01T05:43:29.230Z,13.47
2019-03-01T05:45:57.161Z,14.67
2019-03-01T05:48:25.517Z,14.60
2019-03-01T05:50:53.502Z,14.93
2019-03-01T05:53:21.858Z,13.47
2019-03-01T05:55:50.390Z,7.67
2019-03-01T05:58:26.090Z,13.70
2019-03-01T06:00:53.833Z,13.10
2019-03-01T06:03:50.190Z,11.73
2019-03-01T06:06:19.661Z,22.40
2019-03-01T06:08:50.433Z,10.03
2019-03-01T06:11:37.251Z,12.07
2019-03-01T06:14:18.521Z,9.20
2019-03-01T06:17:05.378Z,12.30
2019-03-01T06:19:45.541Z,15.67
2019-03-01T06:22:32.613Z,13.50
2019-03-01T06:25:38.502Z,14.30
2019-03-01T06:28:25.275Z,14.13
2019-03-01T06:31:18.109Z,19.97
2019-03-01T06:34:06.818Z,12.87
2019-03-01T06:37:08.970Z,16.90
2019-03-01T06:40:20.566Z,14.50
2019-03-01T06:43:00.000Z,22.97
2019-03-01T06:45:35.510Z,16.20
2019-03-01T06:48:04.173Z,16.67
2019-03-01T06:50:36.574Z,19.40
2019-03-01T06:53:04.857Z,17.20
2019-03-01T06:55:36.733Z,17.40
2019-03-01T06:58:04.633Z,19.90
2019-03-01T07:00:35.968Z,16.40
2019-03-01T07:03:04.366Z,16.93
2019-03-01T07:05:32.338Z,18.53
2019-03-01T07:08:00.371Z,22.90
2019-03-01T07:10:28.844Z,17.50
2019-03-01T07:12:56.780Z,22.10
2019-03-01T07:15:24.777Z,17.33
2019-03-01T07:17:52.792Z,18.97
2019-03-01T07:20:20.456Z,21.83
2019-03-01T07:22:48.810Z,22.07
2019-03-01T07:25:16.932Z,23.07
2019-03-01T07:27:45.254Z,19.97
2019-03-01T07:30:13.362Z,21.60
2019-03-01T07:32:41.694Z,23.90
2019-03-01T07:35:09.388Z,30.97
2019-03-01T07:37:37.373Z,25.97
2019-03-01T07:40:05.814Z,24.67
2019-03-01T07:42:34.113Z,29.50
2019-03-01T07:45:02.447Z,32.70
2019-03-01T07:47:30.477Z,33.77
2019-03-01T07:49:58.449Z,35.03
2019-03-01T07:52:26.469Z,41.47
2019-03-01T07:54:54.654Z,43.53
2019-03-01T07:57:22.678Z,37.13
2019-03-01T07:59:50.691Z,38.90
2019-03-01T08:02:18.729Z,39.23
2019-03-01T08:04:46.634Z,50.73
2019-03-01T08:07:15.012Z,46.73
2019-03-01T08:09:44.915Z,47.27
2019-03-01T08:12:12.072Z,55.17
2019-03-01T08:14:40.534Z,52.63
2019-03-01T08:17:08.626Z,56.17
2019-03-01T08:19:37.002Z,61.57
2019-03-01T08:22:05.374Z,64.40
2019-03-01T08:24:33.053Z,70.33
2019-03-01T08:27:01.083Z,74.03
2019-03-01T08:29:30.716Z,67.97
2019-03-01T08:31:59.007Z,78.43
2019-03-01T08:34:26.693Z,78.27
2019-03-01T08:36:54.687Z,91.83
2019-03-01T08:39:22.416Z,88.43
2019-03-01T08:41:50.455Z,89.47
2019-03-01T08:44:19.480Z,99.73
2019-03-01T08:46:48.861Z,94.23
2019-03-01T08:49:16.931Z,85.30
2019-03-01T08:51:45.223Z,103.80
2019-03-01T08:54:13.135Z,98.40
2019-03-01T08:56:41.149Z,104.53
2019-03-01T08:59:09.524Z,93.00
2019-03-01T09:01:37.212Z,89.63
2019-03-01T09:04:07.088Z,93.20
2019-03-01T09:06:35.429Z,97.23
2019-03-01T09:09:05.385Z,91.00
2019-03-01T09:11:33.332Z,101.90
2019-03-01T09:14:01.313Z,100.53
2019-03-01T09:16:29.266Z,92.67
2019-03-01T09:18:57.471Z,101.17
2019-03-01T09:21:25.150Z,96.40
2019-03-01T09:23:54.989Z,92.73
2019-03-01T09:26:22.958Z,103.03
2019-03-01T09:28:50.938Z,114.93
2019-03-01T09:31:18.862Z,97.73
2019-03-01T09:33:47.230Z,92.40
2019-03-01T09:36:21.288Z,100.30
2019-03-01T09:38:48.677Z,104.07
2019-03-01T09:41:17.141Z,87.53
2019-03-01T09:43:45.666Z,91.30
2019-03-01T09:46:13.673Z,93.67
2019-03-01T09:48:42.155Z,101.80
2019-03-01T09:51:10.695Z,92.40
2019-03-01T09:53:39.464Z,97.50
2019-03-01T09:56:09.781Z,100.07
2019-03-01T09:58:37.115Z,105.90
2019-03-01T10:01:06.851Z,112.27
2019-03-01T10:03:35.483Z,110.87
2019-03-01T10:06:03.457Z,114.73
2019-03-01T10:08:31.477Z,114.53
2019-03-01T10:11:00.518Z,111.37
2019-03-01T10:13:30.417Z,114.40
2019-03-01T10:15:58.290Z,108.97
2019-03-01T10:18:26.309Z,98.17
2019-03-01T10:20:54.319Z,91.37
2019-03-01T10:23:22.221Z,97.00
2019-03-01T10:25:49.893Z,82.20
2019-03-01T10:28:17.819Z,97.37
2019-03-01T10:30:45.786Z,95.40
2019-03-01T10:33:13.817Z,95.80
2019-03-01T10:35:42.025Z,97.17
2019-03-01T10:38:10.587Z,85.57
2019-03-01T10:40:38.911Z,93.50
2019-03-01T10:43:07.169Z,83.50
2019-03-01T10:45:35.530Z,87.97
2019-03-01T10:48:03.235Z,87.57
2019-03-01T10:50:31.241Z,80.50
2019-03-01T10:52:59.201Z,80.93
2019-03-01T10:55:27.171Z,78.50
2019-03-01T10:57:55.133Z,79.93
2019-03-01T11:00:24.420Z,75.83
2019-03-01T11:02:52.350Z,82.77
2019-03-01T11:05:20.102Z,90.97
2019-03-01T11:07:48.909Z,139.87
2019-03-01T11:10:18.407Z,117.47
2019-03-01T11:12:46.445Z,152.20
2019-03-01T11:15:14.633Z,107.07
2019-03-01T11:17:42.590Z,108.63
2019-03-01T11:20:10.981Z,93.00
2019-03-01T11:22:38.926Z,93.17
2019-03-01T11:25:07.813Z,87.73
2019-03-01T11:27:35.828Z,95.17
2019-03-01T11:30:03.854Z,76.07
2019-03-01T11:32:31.586Z,91.73
2019-03-01T11:34:59.537Z,69.87
2019-03-01T11:37:27.213Z,83.47
2019-03-01T11:39:55.240Z,83.63
2019-03-01T11:42:23.213Z,71.00
2019-03-01T11:44:51.165Z,69.37
2019-03-01T11:47:19.517Z,74.87
2019-03-01T11:49:47.507Z,79.63
2019-03-01T11:52:15.194Z,78.23
2019-03-01T11:54:42.869Z,77.30
2019-03-01T11:57:11.334Z,77.83
2019-03-01T11:59:39.673Z,75.83
2019-03-01T12:02:07.683Z,80.20
2019-03-01T12:04:35.948Z,80.60
2019-03-01T12:07:03.957Z,77.80
2019-03-01T12:09:31.613Z,85.60
2019-03-01T12:11:59.590Z,80.57
2019-03-01T12:14:27.422Z,86.83
2019-03-01T12:16:55.709Z,72.53
2019-03-01T12:19:23.622Z,83.63
2019-03-01T12:21:51.978Z,75.27
2019-03-01T12:24:20.450Z,87.70
2019-03-01T12:26:48.106Z,89.53
2019-03-01T12:29:16.706Z,76.87
2019-03-01T12:31:44.676Z,76.93
2019-03-01T12:34:12.422Z,87.90
2019-03-01T12:36:41.116Z,78.00
2019-03-01T12:39:09.947Z,83.03
2019-03-01T12:41:37.801Z,81.83
2019-03-01T12:44:06.050Z,77.63
2019-03-01T12:46:34.421Z,98.37
2019-03-01T12:49:02.505Z,78.20
2019-03-01T12:51:31.003Z,79.00
2019-03-01T12:53:58.683Z,73.70
2019-03-01T12:56:26.687Z,70.23
2019-03-01T12:58:54.359Z,69.80
2019-03-01T13:01:22.653Z,66.17
2019-03-01T13:03:50.685Z,72.03
2019-03-01T13:06:19.009Z,68.23
2019-03-01T13:08:47.818Z,63.73
2019-03-01T13:11:17.157Z,69.93
2019-03-01T13:13:45.209Z,67.33
2019-03-01T13:16:13.541Z,55.70
2019-03-01T13:18:41.566Z,58.80
2019-03-01T13:21:09.639Z,52.00
2019-03-01T13:23:40.460Z,49.77
2019-03-01T13:26:08.288Z,52.27
2019-03-01T13:28:36.294Z,46.03
2019-03-01T13:31:03.969Z,48.53
2019-03-01T13:33:34.749Z,44.00
2019-03-01T13:36:03.547Z,50.10
2019-03-01T13:38:33.935Z,46.23
2019-03-01T13:41:02.243Z,51.63
2019-03-01T13:43:30.122Z,44.83
2019-03-01T13:45:57.817Z,48.70
2019-03-01T13:48:25.842Z,48.63
2019-03-01T13:50:53.527Z,42.67
2019-03-01T13:53:21.533Z,42.93
2019-03-01T13:55:49.535Z,41.07
2019-03-01T13:58:17.725Z,44.47
2019-03-01T14:00:48.806Z,43.00
2019-03-01T14:03:15.662Z,41.97
2019-03-01T14:05:43.606Z,41.10
2019-03-01T14:08:11.271Z,38.10
2019-03-01T14:10:41.828Z,41.37
2019-03-01T14:13:11.145Z,38.93
2019-03-01T14:15:39.889Z,35.23
2019-03-01T14:18:08.250Z,36.70
2019-03-01T14:20:36.296Z,32.20
2019-03-01T14:23:04.616Z,34.43
2019-03-01T14:25:32.613Z,31.50
2019-03-01T14:28:02.086Z,35.93
2019-03-01T14:30:33.260Z,35.50
2019-03-01T14:32:59.732Z,29.47
2019-03-01T14:35:28.122Z,26.33
2019-03-01T14:37:55.935Z,28.57
2019-03-01T14:40:24.007Z,25.10
2019-03-01T14:42:51.834Z,27.20
2019-03-01T14:45:20.730Z,24.53
2019-03-01T14:47:48.849Z,26.90
2019-03-01T14:50:17.387Z,23.60
2019-03-01T14:52:45.413Z,28.07
2019-03-01T14:55:14.932Z,28.27
2019-03-01T14:57:46.150Z,25.57
2019-03-01T15:00:17.361Z,30.10
2019-03-01T15:02:50.659Z,29.00
2019-03-01T15:05:19.859Z,37.67
2019-03-01T15:07:48.385Z,32.87
2019-03-01T15:10:16.753Z,43.23
2019-03-01T15:12:44.450Z,45.60
2019-03-01T15:15:12.182Z,64.60
2019-03-01T15:17:40.389Z,56.87
2019-03-01T15:20:09.890Z,59.30
2019-03-01T15:22:37.930Z,63.43
2019-03-01T15:25:08.219Z,62.23
2019-03-01T15:27:39.725Z,72.00
2019-03-01T15:30:09.119Z,71.63
2019-03-01T15:32:37.016Z,81.80
2019-03-01T15:35:04.709Z,87.50
2019-03-01T15:37:35.023Z,74.93
2019-03-01T15:40:02.074Z,89.97
2019-03-01T15:42:29.806Z,89.63
2019-03-01T15:44:57.708Z,89.90
2019-03-01T15:47:26.666Z,101.43
2019-03-01T15:49:55.521Z,97.27
2019-03-01T15:52:23.535Z,92.33
2019-03-01T15:54:51.923Z,97.53
2019-03-01T15:57:19.936Z,102.43
2019-03-01T15:59:48.898Z,84.60
2019-03-01T16:02:17.566Z,81.80
2019-03-01T16:04:45.937Z,76.47
2019-03-01T16:07:14.015Z,62.10
2019-03-01T16:09:41.767Z,54.33
2019-03-01T16:12:09.679Z,51.70
2019-03-01T16:14:37.446Z,49.00
2019-03-01T16:17:05.458Z,53.60
2019-03-01T16:19:33.854Z,49.63
2019-03-01T16:22:02.349Z,50.47
2019-03-01T16:24:30.049Z,46.20
2019-03-01T16:26:57.706Z,37.77
2019-03-01T16:29:25.645Z,44.57
2019-03-01T16:31:54.050Z,39.60
2019-03-01T16:34:21.813Z,40.23
2019-03-01T16:36:52.713Z,36.17
2019-03-01T16:39:23.879Z,42.67
2019-03-01T16:41:51.915Z,33.93
2019-03-01T16:44:20.221Z,33.90
2019-03-01T16:46:48.442Z,35.67
2019-03-01T16:49:16.131Z,34.67
2019-03-01T16:51:44.168Z,35.77
2019-03-01T16:54:15.174Z,37.07
2019-03-01T16:56:42.176Z,32.87
2019-03-01T16:59:09.944Z,34.77
2019-03-01T17:01:38.035Z,30.93
2019-03-01T17:04:05.985Z,32.53
2019-03-01T17:06:34.052Z,31.47
2019-03-01T17:09:03.980Z,30.17
2019-03-01T17:11:31.833Z,35.57
2019-03-01T17:14:02.672Z,33.63
2019-03-01T17:16:29.341Z,36.27
2019-03-01T17:18:57.630Z,30.10
2019-03-01T17:21:25.632Z,35.03
2019-03-01T17:23:54.703Z,32.50
2019-03-01T17:26:22.520Z,32.10
2019-03-01T17:28:50.567Z,32.03
2019-03-01T17:31:18.518Z,34.03
2019-03-01T17:33:48.843Z,29.20
2019-03-01T17:36:17.043Z,32.47
2019-03-01T17:38:46.200Z,34.63
2019-03-01T17:41:14.268Z,32.83
2019-03-01T17:43:42.285Z,33.67
2019-03-01T17:46:10.222Z,25.07
2019-03-01T17:48:38.166Z,35.27
2019-03-01T17:51:05.834Z,32.97
2019-03-01T17:53:34.065Z,27.90
2019-03-01T17:56:02.002Z,28.43
2019-03-01T17:58:29.753Z,31.30
2019-03-01T18:00:58.877Z,29.83
2019-03-01T18:03:27.711Z,31.50
2019-03-01T18:05:55.361Z,30.40
2019-03-01T18:08:23.854Z,32.03
2019-03-01T18:10:51.917Z,32.90
2019-03-01T18:13:20.000Z,31.47
2019-03-01T18:15:48.714Z,33.50
2019-03-01T18:18:17.057Z,26.80
2019-03-01T18:20:45.117Z,26.43
2019-03-01T18:23:12.816Z,32.63
2019-03-01T18:25:41.033Z,31.17
2019-03-01T18:28:09.162Z,31.87
2019-03-01T18:30:37.593Z,28.80
2019-03-01T18:33:05.946Z,28.30
2019-03-01T18:35:34.201Z,27.80
2019-03-01T18:38:02.053Z,29.20
2019-03-01T18:40:30.487Z,26.10
2019-03-01T18:42:58.618Z,23.20
2019-03-01T18:45:26.625Z,26.30
2019-03-01T18:47:55.171Z,25.10
2019-03-01T18:50:27.595Z,26.00
2019-03-01T18:52:54.360Z,29.10
2019-03-01T18:55:22.133Z,25.53
2019-03-01T18:57:50.197Z,27.13
2019-03-01T19:00:19.179Z,23.20
2019-03-01T19:02:47.384Z,26.17
2019-03-01T19:05:15.127Z,24.90
2019-03-01T19:07:43.150Z,23.57
2019-03-01T19:10:11.146Z,28.50
2019-03-01T19:12:39.351Z,30.57
2019-03-01T19:15:07.946Z,29.23
2019-03-01T19:17:36.787Z,31.43
2019-03-01T19:20:05.708Z,28.27
2019-03-01T19:22:35.020Z,32.50
2019-03-01T19:25:03.313Z,34.03
2019-03-01T19:27:31.302Z,28.80
2019-03-01T19:29:59.099Z,28.37
2019-03-01T19:32:27.610Z,23.37
2019-03-01T19:34:55.345Z,28.13
2019-03-01T19:37:23.604Z,25.50
2019-03-01T19:39:51.692Z,25.97
2019-03-01T19:42:20.417Z,22.27
2019-03-01T19:44:48.678Z,25.63
2019-03-01T19:47:16.741Z,20.13
2019-03-01T19:49:45.173Z,25.33
2019-03-01T19:52:14.184Z,22.30
2019-03-01T19:54:42.560Z,21.57
2019-03-01T19:57:11.218Z,25.63
2019-03-01T19:59:39.324Z,23.40
2019-03-01T20:02:07.720Z,25.67
2019-03-01T20:04:36.058Z,25.57
2019-03-01T20:07:04.323Z,17.57
2019-03-01T20:09:32.418Z,17.50
2019-03-01T20:12:02.757Z,20.03
2019-03-01T20:14:33.630Z,20.47
2019-03-01T20:17:00.169Z,18.60
2019-03-01T20:19:28.178Z,18.10
2019-03-01T20:21:56.137Z,20.40
2019-03-01T20:24:24.233Z,20.70
2019-03-01T20:26:51.894Z,24.73
2019-03-01T20:29:20.218Z,20.20
2019-03-01T20:31:49.006Z,22.20
2019-03-01T20:34:17.190Z,18.20
2019-03-01T20:36:45.557Z,20.30
2019-03-01T20:39:15.569Z,18.90
2019-03-01T20:41:46.308Z,22.30
2019-03-01T20:44:14.754Z,19.93
2019-03-01T20:46:43.884Z,24.13
2019-03-01T20:49:12.671Z,22.17
2019-03-01T20:51:40.948Z,20.33
2019-03-01T20:54:09.639Z,22.67
2019-03-01T20:56:37.722Z,18.43
2019-03-01T20:59:06.089Z,23.53
2019-03-01T21:01:37.243Z,26.70
2019-03-01T21:04:05.629Z,29.43
2019-03-01T21:06:34.068Z,27.07
2019-03-01T21:09:04.091Z,25.17
2019-03-01T21:11:31.273Z,26.53
2019-03-01T21:13:59.237Z,25.70
2019-03-01T21:16:27.637Z,23.97
2019-03-01T21:18:55.627Z,26.57
2019-03-01T21:21:25.511Z,25.90
2019-03-01T21:23:53.349Z,25.67
2019-03-01T21:26:21.739Z,29.40
2019-03-01T21:28:49.842Z,26.30
2019-03-01T21:31:17.888Z,26.43
2019-03-01T21:33:46.239Z,31.13
2019-03-01T21:36:14.550Z,29.90
2019-03-01T21:38:45.637Z,29.13
2019-03-01T21:41:12.646Z,27.73
2019-03-01T21:43:41.430Z,26.47
2019-03-01T21:46:09.730Z,23.57
2019-03-01T21:48:37.795Z,23.83
2019-03-01T21:51:05.918Z,22.80
2019-03-01T21:53:36.504Z,26.43
2019-03-01T21:56:04.518Z,24.00
2019-03-01T21:58:34.223Z,19.80
2019-03-01T22:01:02.730Z,24.47
2019-03-01T22:03:32.345Z,24.07
2019-03-01T22:06:00.290Z,23.07
2019-03-01T22:08:28.577Z,22.73
2019-03-01T22:10:56.769Z,23.53
2019-03-01T22:13:24.761Z,22.90
2019-03-01T22:15:52.508Z,27.40
2019-03-01T22:18:23.758Z,25.00
2019-03-01T22:20:51.297Z,23.23
2019-03-01T22:23:19.375Z,32.13
2019-03-01T22:25:47.187Z,25.00
2019-03-01T22:28:16.033Z,27.10
2019-03-01T22:30:44.406Z,26.73
2019-03-01T22:33:12.537Z,24.50
2019-03-01T22:35:40.476Z,31.10
2019-03-01T22:38:10.161Z,25.30
2019-03-01T22:40:37.896Z,26.33
2019-03-01T22:43:06.288Z,25.00
2019-03-01T22:45:34.231Z,24.60
2019-03-01T22:48:02.356Z,28.27
2019-03-01T22:50:30.666Z,22.50
2019-03-01T22:52:58.755Z,23.90
2019-03-01T22:55:27.135Z,31.80
2019-03-01T22:57:57.683Z,26.70
2019-03-01T23:00:57.557Z,23.50
2019-03-01T23:03:25.119Z,29.50
2019-03-01T23:05:53.303Z,23.60
2019-03-01T23:08:21.077Z,25.40
2019-03-01T23:10:49.417Z,27.40
2019-03-01T23:13:20.781Z,29.73
2019-03-01T23:15:47.871Z,27.40
2019-03-01T23:18:15.938Z,25.57
2019-03-01T23:20:44.030Z,26.30
2019-03-01T23:23:11.829Z,26.20
2019-03-01T23:25:42.831Z,26.80
2019-03-01T23:28:09.349Z,26.43
2019-03-01T23:30:37.797Z,29.20
2019-03-01T23:33:06.124Z,25.23
2019-03-01T23:35:33.802Z,29.57
2019-03-01T23:38:01.493Z,27.53
2019-03-01T23:40:29.213Z,27.83
2019-03-01T23:42:57.186Z,29.60
2019-03-01T23:45:25.157Z,28.67
2019-03-01T23:47:53.223Z,27.90
2019-03-01T23:50:21.202Z,33.17
2019-03-01T23:52:49.182Z,27.37
2019-03-01T23:55:19.078Z,25.17
2019-03-01T23:57:46.846Z,28.93
